Time;durP1;ratioP1;P1;durP2;ratioP2;P2;SDS_P1;SDS_P2;PMS_P1;PMS_P2;Temp;Humidity;BMP_temperature;BMP_pressure;BME280_temperature;BME280_humidity;BME280_pressure;Samples;Min_cycle;Max_cycle;Signal;HPM_P1;HPM_P2
2023/06/24 00:00:06;;;;;;;1.67;0.88;;;17.90;99.90;;;;;;4400162;32;20478;-77
2023/06/24 00:02:35;;;;;;;1.12;1.02;;;17.90;99.90;;;;;;4399459;32;20110;-77
2023/06/24 00:05:01;;;;;;;1.17;0.95;;;17.90;99.90;;;;;;4401465;32;20083;-77
2023/06/24 00:07:27;;;;;;;0.85;0.85;;;17.90;99.90;;;;;;4398984;32;20082;-77
2023/06/24 00:09:54;;;;;;;1.77;0.95;;;17.90;99.90;;;;;;4397246;32;20683;-77
2023/06/24 00:12:19;;;;;;;0.55;0.55;;;17.80;99.90;;;;;;4399954;32;20085;-77
2023/06/24 00:14:46;;;;;;;1.42;1.12;;;17.80;99.90;;;;;;4399100;32;20098;-77
2023/06/24 00:17:11;;;;;;;1.02;0.70;;;17.80;99.90;;;;;;4400352;32;20639;-78
2023/06/24 00:19:37;;;;;;;0.82;0.70;;;17.80;99.90;;;;;;4399448;32;20086;-77
2023/06/24 00:22:03;;;;;;;0.50;0.50;;;17.80;99.90;;;;;;4399181;32;20066;-77
2023/06/24 00:24:29;;;;;;;0.85;0.85;;;17.80;99.90;;;;;;4405187;32;20093;-77
2023/06/24 00:26:55;;;;;;;17.27;1.90;;;17.80;99.90;;;;;;4402553;32;20147;-77
2023/06/24 00:29:21;;;;;;;1.70;1.02;;;17.70;99.90;;;;;;4403367;32;20102;-77
2023/06/24 00:31:47;;;;;;;1.02;0.73;;;17.70;99.90;;;;;;4402674;32;20098;-76
2023/06/24 00:34:12;;;;;;;1.75;1.25;;;17.70;99.90;;;;;;4402104;32;20074;-77
2023/06/24 00:36:38;;;;;;;0.68;0.62;;;17.70;99.90;;;;;;4402408;32;20082;-77
2023/06/24 00:39:04;;;;;;;4.32;1.50;;;17.60;99.90;;;;;;4403781;32;20087;-77
2023/06/24 00:41:30;;;;;;;0.98;0.73;;;17.60;99.90;;;;;;4403864;32;20123;-76
2023/06/24 00:43:58;;;;;;;1.23;0.98;;;17.70;99.90;;;;;;4404623;32;20090;-76
2023/06/24 00:46:25;;;;;;;0.65;0.65;;;17.60;99.90;;;;;;4403488;32;20063;-76
2023/06/24 00:48:55;;;;;;;3.08;1.52;;;17.60;99.90;;;;;;4403007;32;20066;-76
2023/06/24 00:51:26;;;;;;;1.90;1.15;;;17.60;99.90;;;;;;4403407;32;20073;-76
2023/06/24 00:53:52;;;;;;;2.40;0.82;;;17.60;99.90;;;;;;4403895;32;20081;-77
2023/06/24 00:56:21;;;;;;;3.58;0.90;;;17.50;99.90;;;;;;4403301;32;20088;-76
2023/06/24 00:58:47;;;;;;;0.50;0.50;;;17.60;99.90;;;;;;4404340;32;20082;-76
2023/06/24 01:01:14;;;;;;;0.68;0.68;;;17.50;99.90;;;;;;4402662;32;20573;-76
2023/06/24 01:03:40;;;;;;;1.65;1.30;;;17.50;99.90;;;;;;4403682;32;20082;-76
2023/06/24 01:06:06;;;;;;;1.95;0.77;;;17.40;99.90;;;;;;4403223;32;20140;-76
2023/06/24 01:08:31;;;;;;;2.47;0.98;;;17.40;99.90;;;;;;4402634;32;20074;-77
2023/06/24 01:10:57;;;;;;;1.62;0.88;;;17.40;99.90;;;;;;4402720;32;20531;-76
2023/06/24 01:13:23;;;;;;;0.70;0.70;;;17.30;99.90;;;;;;4403650;32;20078;-76
2023/06/24 01:15:49;;;;;;;2.83;0.90;;;17.40;99.90;;;;;;4403324;32;20180;-76
2023/06/24 01:18:40;;;;;;;13.62;3.17;;;17.40;99.90;;;;;;4404330;32;20073;-77
2023/06/24 01:21:31;;;;;;;0.88;0.88;;;17.40;99.90;;;;;;4390902;32;20133;-76
2023/06/24 01:24:33;;;;;;;0.50;0.50;;;17.40;99.90;;;;;;4402561;32;20094;-76
2023/06/24 01:27:12;;;;;;;0.95;0.70;;;17.30;99.90;;;;;;4390473;32;20086;-76
2023/06/24 01:30:05;;;;;;;1.23;0.85;;;17.30;99.90;;;;;;4400663;32;20073;-76
2023/06/24 01:32:44;;;;;;;4.55;0.70;;;17.30;99.90;;;;;;4390417;32;20070;-76
2023/06/24 01:35:20;;;;;;;0.98;0.82;;;17.30;99.90;;;;;;4399778;32;20085;-76
2023/06/24 01:37:51;;;;;;;0.70;0.70;;;17.20;99.90;;;;;;4401224;32;20098;-76
2023/06/24 01:40:27;;;;;;;3.62;0.77;;;17.20;99.90;;;;;;4404019;32;20116;-77
2023/06/24 01:42:56;;;;;;;1.55;0.80;;;17.20;99.90;;;;;;4401706;32;20079;-76
2023/06/24 01:45:26;;;;;;;0.77;0.52;;;17.10;99.90;;;;;;4401653;32;20251;-76
2023/06/24 01:48:01;;;;;;;0.80;0.80;;;17.10;99.90;;;;;;4403792;32;20085;-76
2023/06/24 01:50:29;;;;;;;0.93;0.70;;;17.10;99.90;;;;;;4402762;32;20089;-75
2023/06/24 01:52:56;;;;;;;0.85;0.82;;;17.10;99.90;;;;;;4401312;32;20108;-78
2023/06/24 01:55:23;;;;;;;1.33;0.68;;;17.10;99.90;;;;;;4404603;32;20132;-78
2023/06/24 01:57:51;;;;;;;3.80;1.42;;;17.00;99.90;;;;;;4401669;32;20114;-76
2023/06/24 02:00:17;;;;;;;0.57;0.57;;;17.00;99.90;;;;;;4401985;32;20192;-76
2023/06/24 02:02:44;;;;;;;1.08;0.90;;;17.00;99.90;;;;;;4401523;32;20149;-76
2023/06/24 02:05:11;;;;;;;1.15;0.75;;;16.90;99.90;;;;;;4403173;32;20101;-76
2023/06/24 02:07:38;;;;;;;0.60;0.60;;;16.80;99.90;;;;;;4403061;32;20102;-76
2023/06/24 02:10:05;;;;;;;1.73;0.65;;;16.90;99.90;;;;;;4403687;32;20102;-76
2023/06/24 02:12:32;;;;;;;0.57;0.57;;;16.80;99.90;;;;;;4402564;32;20509;-76
2023/06/24 02:14:59;;;;;;;3.25;0.75;;;16.80;99.90;;;;;;4404264;32;20089;-77
2023/06/24 02:17:26;;;;;;;0.65;0.65;;;16.70;99.90;;;;;;4402788;32;20085;-75
2023/06/24 02:19:53;;;;;;;2.00;0.73;;;16.60;99.90;;;;;;4403126;32;20069;-75
2023/06/24 02:22:20;;;;;;;0.65;0.65;;;16.60;99.90;;;;;;4400815;32;20458;-76
2023/06/24 02:24:47;;;;;;;0.60;0.60;;;16.50;99.90;;;;;;4401103;32;20110;-76
2023/06/24 02:27:13;;;;;;;0.75;0.60;;;16.50;99.90;;;;;;4401384;32;20164;-76
2023/06/24 02:29:39;;;;;;;1.52;0.70;;;16.50;99.90;;;;;;4400584;32;20089;-76
2023/06/24 02:32:06;;;;;;;0.52;0.52;;;16.40;99.90;;;;;;4399545;32;20093;-76
2023/06/24 02:34:33;;;;;;;0.80;0.77;;;16.40;99.90;;;;;;4404058;32;20082;-76
2023/06/24 02:36:58;;;;;;;0.55;0.55;;;16.40;99.90;;;;;;4401326;32;20535;-75
2023/06/24 02:39:24;;;;;;;0.57;0.57;;;16.40;99.90;;;;;;4402167;32;20089;-75
2023/06/24 02:41:49;;;;;;;2.60;1.20;;;16.30;99.90;;;;;;4403212;32;21150;-76
2023/06/24 02:44:16;;;;;;;3.90;0.90;;;16.30;99.90;;;;;;4402601;32;20071;-75
2023/06/24 02:46:44;;;;;;;20.65;0.88;;;16.30;99.90;;;;;;4400010;32;20490;-77
2023/06/24 02:49:11;;;;;;;6.47;0.88;;;16.20;99.90;;;;;;4402876;32;20562;-78
2023/06/24 02:51:38;;;;;;;0.40;0.40;;;16.20;99.90;;;;;;4402803;32;20070;-78
2023/06/24 02:54:04;;;;;;;0.60;0.60;;;16.10;99.90;;;;;;4405875;32;20078;-78
2023/06/24 02:56:30;;;;;;;0.93;0.60;;;16.10;99.90;;;;;;4402022;32;20144;-78
2023/06/24 02:58:56;;;;;;;0.60;0.60;;;16.10;99.90;;;;;;4402912;32;20144;-78
2023/06/24 03:01:24;;;;;;;0.50;0.50;;;16.00;99.90;;;;;;4401473;32;20089;-77
2023/06/24 03:03:54;;;;;;;0.98;0.80;;;16.00;99.90;;;;;;4400739;32;20090;-77
2023/06/24 03:06:21;;;;;;;0.55;0.55;;;16.00;99.90;;;;;;4400861;32;20563;-77
2023/06/24 03:08:47;;;;;;;0.45;0.45;;;15.90;99.90;;;;;;4401262;32;20091;-77
2023/06/24 03:11:14;;;;;;;1.75;0.88;;;15.80;99.90;;;;;;4401433;32;20830;-77
2023/06/24 03:13:39;;;;;;;0.98;0.73;;;15.80;99.90;;;;;;4401126;32;20149;-75
2023/06/24 03:16:05;;;;;;;2.70;1.17;;;15.90;99.90;;;;;;4402383;32;20485;-76
2023/06/24 03:18:31;;;;;;;0.50;0.50;;;15.80;99.90;;;;;;4404337;32;20066;-77
2023/06/24 03:20:57;;;;;;;0.57;0.57;;;15.90;99.90;;;;;;4388738;32;20523;-77
2023/06/24 03:23:22;;;;;;;0.47;0.47;;;15.80;99.90;;;;;;4400319;32;20172;-77
2023/06/24 03:25:48;;;;;;;1.55;0.50;;;15.80;99.90;;;;;;4396482;32;20153;-77
2023/06/24 03:28:13;;;;;;;0.35;0.35;;;15.80;99.90;;;;;;4399426;32;20074;-77
2023/06/24 03:30:40;;;;;;;0.93;0.93;;;15.80;99.90;;;;;;4400066;32;20120;-77
2023/06/24 03:33:06;;;;;;;3.58;0.93;;;15.80;99.90;;;;;;4400824;32;20366;-77
2023/06/24 03:35:32;;;;;;;0.90;0.90;;;15.60;99.90;;;;;;4399649;32;20124;-77
2023/06/24 03:37:58;;;;;;;0.75;0.75;;;15.70;99.90;;;;;;4399162;32;20089;-77
2023/06/24 03:40:23;;;;;;;0.62;0.47;;;15.70;99.90;;;;;;4399008;32;20077;-77
2023/06/24 03:42:49;;;;;;;0.60;0.60;;;15.70;99.90;;;;;;4397849;32;20121;-77
2023/06/24 03:45:14;;;;;;;5.93;1.02;;;15.70;99.90;;;;;;4400058;32;20075;-76
2023/06/24 03:47:40;;;;;;;2.95;0.70;;;15.70;99.90;;;;;;4399021;32;20083;-77
2023/06/24 03:50:06;;;;;;;0.57;0.57;;;15.70;99.90;;;;;;4401658;32;20411;-77
2023/06/24 03:52:31;;;;;;;0.98;0.80;;;15.70;99.90;;;;;;4398967;32;20561;-77
2023/06/24 03:54:57;;;;;;;7.32;1.20;;;15.70;99.90;;;;;;4402057;32;20062;-77
2023/06/24 03:57:23;;;;;;;0.70;0.70;;;15.70;99.90;;;;;;4405656;32;20102;-77
2023/06/24 03:59:48;;;;;;;2.37;1.00;;;15.70;99.90;;;;;;4401839;32;20609;-77
2023/06/24 04:02:14;;;;;;;0.98;0.75;;;15.70;99.90;;;;;;4404220;32;20143;-77
2023/06/24 04:04:39;;;;;;;0.65;0.40;;;15.70;99.90;;;;;;4405170;32;20085;-77
2023/06/24 04:07:05;;;;;;;0.90;0.80;;;15.70;99.90;;;;;;4406625;32;20074;-77
2023/06/24 04:09:34;;;;;;;2.22;0.47;;;15.80;99.90;;;;;;4402441;32;21349;-77
2023/06/24 04:11:59;;;;;;;0.75;0.75;;;15.90;99.90;;;;;;4403509;32;20146;-77
2023/06/24 04:14:25;;;;;;;1.30;0.47;;;15.80;99.90;;;;;;4405667;32;20193;-77
2023/06/24 04:16:50;;;;;;;0.70;0.70;;;15.80;99.90;;;;;;4403169;32;20390;-77
2023/06/24 04:19:16;;;;;;;0.50;0.50;;;15.80;99.90;;;;;;4404060;32;20565;-77
2023/06/24 04:21:42;;;;;;;0.88;0.75;;;15.80;99.90;;;;;;4403712;32;20090;-76
2023/06/24 04:24:08;;;;;;;2.87;0.95;;;15.80;99.90;;;;;;4399120;32;20078;-76
2023/06/24 04:26:33;;;;;;;1.45;0.60;;;15.70;99.90;;;;;;4401274;32;20414;-76
2023/06/24 04:28:59;;;;;;;1.10;0.55;;;15.70;99.90;;;;;;4403931;32;20307;-76
2023/06/24 04:31:27;;;;;;;1.12;0.68;;;15.60;99.90;;;;;;4403322;32;20086;-76
2023/06/24 04:33:53;;;;;;;1.15;1.05;;;15.70;99.90;;;;;;4402529;32;20078;-76
2023/06/24 04:36:19;;;;;;;0.50;0.50;;;15.80;99.90;;;;;;4401525;32;20085;-76
2023/06/24 04:38:44;;;;;;;1.12;1.02;;;15.90;99.90;;;;;;4401697;32;20077;-76
2023/06/24 04:41:09;;;;;;;0.50;0.50;;;15.90;99.90;;;;;;4404391;32;20169;-76
2023/06/24 04:43:36;;;;;;;0.50;0.50;;;15.90;99.90;;;;;;4402676;32;20568;-76
2023/06/24 04:46:02;;;;;;;1.45;0.88;;;15.90;99.90;;;;;;4404622;32;20144;-76
2023/06/24 04:48:27;;;;;;;0.52;0.52;;;15.90;99.90;;;;;;4403207;32;20140;-77
2023/06/24 04:50:54;;;;;;;2.97;0.82;;;15.90;99.90;;;;;;4401386;32;20089;-76
2023/06/24 04:53:20;;;;;;;0.60;0.60;;;16.00;99.90;;;;;;4402904;32;20427;-77
2023/06/24 04:55:46;;;;;;;0.95;0.60;;;16.00;99.90;;;;;;4403627;32;20089;-76
2023/06/24 04:58:11;;;;;;;1.33;1.17;;;16.00;99.90;;;;;;4403688;32;20592;-76
2023/06/24 05:00:37;;;;;;;0.50;0.50;;;16.00;99.90;;;;;;4402044;32;20165;-76
2023/06/24 05:03:02;;;;;;;0.52;0.52;;;16.10;99.90;;;;;;4402441;32;20258;-76
2023/06/24 05:05:28;;;;;;;1.90;0.90;;;16.00;99.90;;;;;;4401322;32;20105;-75
2023/06/24 05:07:53;;;;;;;5.47;2.05;;;15.90;99.90;;;;;;4401421;32;20112;-76
2023/06/24 05:10:19;;;;;;;6.55;0.85;;;16.00;99.90;;;;;;4402143;32;20074;-77
2023/06/24 05:12:44;;;;;;;0.60;0.60;;;16.00;99.90;;;;;;4403310;32;20407;-77
2023/06/24 05:15:10;;;;;;;2.12;0.60;;;16.00;99.90;;;;;;4402336;32;20525;-78
2023/06/24 05:17:36;;;;;;;1.27;0.95;;;16.00;99.90;;;;;;4403381;32;20395;-78
2023/06/24 05:20:03;;;;;;;0.75;0.65;;;16.10;99.90;;;;;;4402496;32;20236;-77
2023/06/24 05:22:28;;;;;;;1.20;0.85;;;16.10;99.90;;;;;;4402893;32;20069;-76
2023/06/24 05:24:55;;;;;;;0.73;0.60;;;16.10;99.90;;;;;;4402140;32;20772;-78
2023/06/24 05:27:20;;;;;;;0.68;0.62;;;16.10;99.90;;;;;;4402121;32;20490;-77
2023/06/24 05:29:46;;;;;;;1.15;0.85;;;16.20;99.90;;;;;;4398803;32;20101;-78
2023/06/24 05:32:11;;;;;;;0.50;0.50;;;16.20;99.90;;;;;;4401020;32;20825;-78
2023/06/24 05:34:37;;;;;;;1.75;1.42;;;16.30;99.90;;;;;;4401626;32;20221;-77
2023/06/24 05:37:03;;;;;;;1.40;0.60;;;16.30;99.90;;;;;;4401216;32;20205;-75
2023/06/24 05:39:28;;;;;;;0.73;0.70;;;16.30;99.90;;;;;;4402175;32;20151;-75
2023/06/24 05:41:54;;;;;;;1.10;0.68;;;16.30;99.90;;;;;;4404261;32;20070;-76
2023/06/24 05:44:20;;;;;;;2.83;1.10;;;16.40;99.90;;;;;;4404271;32;20086;-76
2023/06/24 05:46:45;;;;;;;0.73;0.73;;;16.40;99.90;;;;;;4399658;32;20090;-76
2023/06/24 05:49:11;;;;;;;6.55;1.87;;;16.50;99.90;;;;;;4403563;32;20139;-77
2023/06/24 05:51:37;;;;;;;3.20;1.15;;;16.50;99.90;;;;;;4403720;32;20074;-76
2023/06/24 05:54:03;;;;;;;1.05;0.88;;;16.60;99.90;;;;;;4404532;32;20129;-76
2023/06/24 05:56:29;;;;;;;0.45;0.45;;;16.60;99.90;;;;;;4402194;32;20089;-76
2023/06/24 05:58:55;;;;;;;24.58;0.95;;;16.60;99.90;;;;;;4401184;32;20090;-77
2023/06/24 06:01:22;;;;;;;3.30;1.05;;;16.60;99.90;;;;;;4400927;32;20058;-74
2023/06/24 06:03:47;;;;;;;0.57;0.57;;;16.60;99.90;;;;;;4403466;32;20178;-75
2023/06/24 06:06:13;;;;;;;1.23;1.12;;;16.60;99.90;;;;;;4402352;32;20117;-76
2023/06/24 06:08:40;;;;;;;0.57;0.57;;;16.60;99.90;;;;;;4402281;32;20138;-75
2023/06/24 06:11:06;;;;;;;0.93;0.70;;;16.70;99.90;;;;;;4400832;32;20427;-78
2023/06/24 06:13:32;;;;;;;0.40;0.40;;;16.70;99.90;;;;;;4401105;32;20191;-76
2023/06/24 06:15:57;;;;;;;11.70;1.30;;;16.80;99.90;;;;;;4402574;32;20066;-76
2023/06/24 06:18:24;;;;;;;0.40;0.40;;;16.80;99.90;;;;;;4403030;32;21009;-76
2023/06/24 06:20:49;;;;;;;0.50;0.50;;;16.80;99.90;;;;;;4401313;32;20086;-76
2023/06/24 06:23:16;;;;;;;4.45;0.75;;;16.90;99.90;;;;;;4403462;32;20510;-76
2023/06/24 06:25:42;;;;;;;0.50;0.50;;;16.90;99.90;;;;;;4400201;32;20522;-77
2023/06/24 06:28:08;;;;;;;0.50;0.50;;;17.00;99.90;;;;;;4404320;32;20095;-77
2023/06/24 06:30:34;;;;;;;0.73;0.60;;;17.10;99.90;;;;;;4401150;32;20066;-76
2023/06/24 06:33:00;;;;;;;1.23;1.12;;;17.20;99.90;;;;;;4401683;32;20078;-76
2023/06/24 06:35:25;;;;;;;0.85;0.85;;;17.30;99.90;;;;;;4400219;32;20089;-76
2023/06/24 06:37:53;;;;;;;0.62;0.50;;;17.40;99.90;;;;;;4404959;32;20125;-76
2023/06/24 06:40:20;;;;;;;0.55;0.55;;;17.50;99.90;;;;;;4400794;32;20077;-76
2023/06/24 06:42:45;;;;;;;1.75;0.50;;;17.50;99.90;;;;;;4401696;32;20089;-77
2023/06/24 06:45:11;;;;;;;0.80;0.77;;;17.60;99.90;;;;;;4402357;32;20541;-77
2023/06/24 06:47:36;;;;;;;0.65;0.50;;;17.70;99.90;;;;;;4400217;32;20080;-76
2023/06/24 06:50:02;;;;;;;0.50;0.50;;;17.70;99.90;;;;;;4400945;32;20099;-76
2023/06/24 06:52:28;;;;;;;0.55;0.55;;;17.70;99.90;;;;;;4402515;32;20821;-76
2023/06/24 06:54:54;;;;;;;1.02;0.50;;;17.70;99.90;;;;;;4403691;32;20110;-76
2023/06/24 06:57:20;;;;;;;0.50;0.50;;;17.80;99.90;;;;;;4402411;32;20062;-77
2023/06/24 06:59:45;;;;;;;0.50;0.50;;;17.90;99.90;;;;;;4401038;32;20227;-76
2023/06/24 07:02:11;;;;;;;0.50;0.50;;;17.90;99.90;;;;;;4401297;32;20483;-77
2023/06/24 07:04:36;;;;;;;0.30;0.30;;;18.00;99.90;;;;;;4401474;32;20077;-77
2023/06/24 07:07:02;;;;;;;1.98;0.70;;;18.10;99.90;;;;;;4402224;32;20100;-76
2023/06/24 07:09:28;;;;;;;0.90;0.90;;;18.20;99.90;;;;;;4402304;32;20077;-76
2023/06/24 07:11:53;;;;;;;0.70;0.70;;;18.20;99.90;;;;;;4400912;32;20106;-76
2023/06/24 07:14:19;;;;;;;0.50;0.50;;;18.20;99.90;;;;;;4401547;32;20629;-76
2023/06/24 07:16:44;;;;;;;2.62;1.25;;;18.30;99.90;;;;;;4399675;32;20538;-76
2023/06/24 07:19:10;;;;;;;0.30;0.30;;;18.30;99.90;;;;;;4400354;32;20094;-77
2023/06/24 07:21:35;;;;;;;2.28;0.40;;;18.40;99.90;;;;;;4399399;32;20066;-78
2023/06/24 07:24:02;;;;;;;0.30;0.30;;;18.40;99.90;;;;;;4403226;32;20137;-76
2023/06/24 07:26:28;;;;;;;0.32;0.32;;;18.40;99.90;;;;;;4397963;32;20102;-76
2023/06/24 07:28:57;;;;;;;2.53;1.00;;;18.60;99.90;;;;;;4401566;32;20062;-77
2023/06/24 07:31:22;;;;;;;0.37;0.37;;;18.80;99.90;;;;;;4401636;32;20094;-77
2023/06/24 07:33:48;;;;;;;0.60;0.60;;;18.90;99.90;;;;;;4401072;32;20576;-76
2023/06/24 07:36:14;;;;;;;0.50;0.50;;;18.80;99.90;;;;;;4400166;32;20407;-76
2023/06/24 07:38:40;;;;;;;0.30;0.30;;;18.80;99.90;;;;;;4401564;32;20066;-77
2023/06/24 07:41:05;;;;;;;1.05;0.50;;;18.90;99.90;;;;;;4400094;32;20066;-76
2023/06/24 07:43:31;;;;;;;0.30;0.30;;;19.00;99.90;;;;;;4398750;32;20077;-77
2023/06/24 07:45:56;;;;;;;0.73;0.70;;;19.20;99.90;;;;;;4398695;32;20090;-77
2023/06/24 07:48:22;;;;;;;0.45;0.43;;;19.30;99.90;;;;;;4402835;32;20114;-77
2023/06/24 07:50:47;;;;;;;0.65;0.50;;;19.50;99.90;;;;;;4398878;32;20073;-77
2023/06/24 07:53:13;;;;;;;0.40;0.40;;;19.60;99.90;;;;;;4400832;32;20125;-77
2023/06/24 07:55:39;;;;;;;0.40;0.40;;;19.50;99.90;;;;;;4397994;32;20118;-77
2023/06/24 07:58:04;;;;;;;0.30;0.30;;;19.60;99.90;;;;;;4401060;32;20113;-77
2023/06/24 08:00:30;;;;;;;0.40;0.40;;;19.80;99.90;;;;;;4399142;32;20061;-77
2023/06/24 08:02:58;;;;;;;0.60;0.60;;;19.80;99.90;;;;;;4400673;32;20090;-77
2023/06/24 08:05:23;;;;;;;0.40;0.40;;;19.80;99.90;;;;;;4400118;32;20058;-77
2023/06/24 08:07:50;;;;;;;0.43;0.43;;;19.90;99.90;;;;;;4400302;32;20078;-76
2023/06/24 08:10:16;;;;;;;0.30;0.30;;;19.90;99.90;;;;;;4399490;32;20427;-76
2023/06/24 08:12:43;;;;;;;1.30;1.05;;;19.90;99.90;;;;;;4400882;32;20073;-76
2023/06/24 08:15:09;;;;;;;0.37;0.37;;;20.20;99.90;;;;;;4401268;32;20097;-77
2023/06/24 08:17:34;;;;;;;0.28;0.28;;;20.50;99.90;;;;;;4401731;32;20082;-76
2023/06/24 08:20:02;;;;;;;0.40;0.40;;;20.40;99.90;;;;;;4402070;32;20506;-77
2023/06/24 08:22:28;;;;;;;0.30;0.30;;;20.20;99.90;;;;;;4401898;32;20093;-76
2023/06/24 08:24:53;;;;;;;0.30;0.30;;;20.10;99.90;;;;;;4398852;32;20082;-77
2023/06/24 08:27:19;;;;;;;0.30;0.30;;;20.10;99.90;;;;;;4400687;32;20082;-77
2023/06/24 08:29:45;;;;;;;3.22;1.25;;;20.30;99.90;;;;;;4400071;32;20186;-76
2023/06/24 08:32:10;;;;;;;0.57;0.57;;;20.30;99.90;;;;;;4401010;32;20078;-77
2023/06/24 08:34:35;;;;;;;0.62;0.50;;;20.20;99.90;;;;;;4398442;32;20102;-77
2023/06/24 08:37:01;;;;;;;0.30;0.30;;;20.20;99.90;;;;;;4398340;32;20486;-77
2023/06/24 08:39:27;;;;;;;0.45;0.37;;;20.30;99.90;;;;;;4401330;32;20086;-77
2023/06/24 08:41:52;;;;;;;1.15;0.43;;;20.50;99.90;;;;;;4400101;32;20081;-76
2023/06/24 08:44:19;;;;;;;0.50;0.50;;;20.40;99.90;;;;;;4404721;32;20077;-77
2023/06/24 08:46:45;;;;;;;0.40;0.40;;;20.10;99.90;;;;;;4402395;32;20082;-77
2023/06/24 08:49:28;;;;;;;2.17;0.70;;;20.10;99.90;;;;;;4405120;32;20074;-77
2023/06/24 08:52:02;;;;;;;0.35;0.35;;;20.40;99.90;;;;;;4389084;32;20093;-76
2023/06/24 08:54:29;;;;;;;1.65;0.60;;;20.50;99.90;;;;;;4405358;32;20066;-76
2023/06/24 08:56:55;;;;;;;2.17;1.25;;;20.60;99.90;;;;;;4402758;32;20526;-77
2023/06/24 08:59:21;;;;;;;0.40;0.40;;;20.60;99.90;;;;;;4402199;32;20089;-77
2023/06/24 09:01:47;;;;;;;0.52;0.50;;;20.90;99.90;;;;;;4403694;32;20078;-77
2023/06/24 09:04:13;;;;;;;0.35;0.35;;;20.80;99.90;;;;;;4406812;32;20145;-77
2023/06/24 09:06:38;;;;;;;0.25;0.25;;;20.70;99.90;;;;;;4403353;32;20086;-77
2023/06/24 09:09:04;;;;;;;20.27;0.50;;;20.90;99.90;;;;;;4403673;32;20129;-77
2023/06/24 09:11:32;;;;;;;0.40;0.40;;;21.10;99.90;;;;;;4401498;32;20089;-77
2023/06/24 09:13:58;;;;;;;0.43;0.43;;;21.00;99.90;;;;;;4405433;32;20106;-76
2023/06/24 09:16:24;;;;;;;0.52;0.40;;;20.80;99.90;;;;;;4405974;32;20111;-78
2023/06/24 09:18:51;;;;;;;0.40;0.40;;;20.60;99.90;;;;;;4402451;32;20553;-76
2023/06/24 09:21:26;;;;;;;0.40;0.40;;;20.50;99.90;;;;;;4404785;32;20093;-78
2023/06/24 09:23:53;;;;;;;0.60;0.60;;;20.80;99.90;;;;;;4406556;32;20517;-77
2023/06/24 09:26:19;;;;;;;1.27;0.45;;;21.00;99.90;;;;;;4406191;32;20780;-77
2023/06/24 09:28:49;;;;;;;8.88;0.70;;;21.30;99.90;;;;;;4406145;32;20066;-77
2023/06/24 09:31:14;;;;;;;0.68;0.68;;;21.40;99.90;;;;;;4401364;32;20089;-76
2023/06/24 09:33:41;;;;;;;0.30;0.30;;;21.30;99.90;;;;;;4402713;32;20089;-77
2023/06/24 09:36:10;;;;;;;9.85;0.50;;;21.30;99.90;;;;;;4401386;32;20061;-76
2023/06/24 09:38:40;;;;;;;1.60;0.30;;;21.40;99.90;;;;;;4399568;32;20129;-76
2023/06/24 09:41:06;;;;;;;0.20;0.20;;;21.50;99.90;;;;;;4401607;32;20081;-76
2023/06/24 09:43:35;;;;;;;1.08;0.40;;;21.50;99.90;;;;;;4401760;32;22241;-76
2023/06/24 09:46:02;;;;;;;0.22;0.22;;;21.60;99.90;;;;;;4403208;32;20082;-77
2023/06/24 09:48:27;;;;;;;0.30;0.30;;;21.60;99.90;;;;;;4401687;32;20098;-76
2023/06/24 09:50:58;;;;;;;0.20;0.20;;;21.80;99.90;;;;;;4403676;32;20085;-77
2023/06/24 09:53:24;;;;;;;0.85;0.40;;;21.70;99.90;;;;;;4403619;32;20061;-77
2023/06/24 09:55:52;;;;;;;0.37;0.37;;;21.60;99.90;;;;;;4401665;32;20098;-76
2023/06/24 09:58:18;;;;;;;0.20;0.20;;;22.00;99.90;;;;;;4404733;32;20047;-76
2023/06/24 10:00:44;;;;;;;0.30;0.30;;;22.20;99.90;;;;;;4400701;32;20077;-77
2023/06/24 10:03:11;;;;;;;0.35;0.30;;;22.30;99.90;;;;;;4401115;32;20086;-77
2023/06/24 10:05:37;;;;;;;0.20;0.20;;;22.40;99.90;;;;;;4402015;32;20106;-77
2023/06/24 10:08:05;;;;;;;0.57;0.57;;;22.80;99.90;;;;;;4402947;32;20485;-75
2023/06/24 10:10:31;;;;;;;0.20;0.20;;;22.90;99.90;;;;;;4403198;32;20141;-76
2023/06/24 10:12:57;;;;;;;0.30;0.30;;;22.90;99.90;;;;;;4400654;32;20109;-76
2023/06/24 10:15:23;;;;;;;0.37;0.37;;;22.90;99.90;;;;;;4400463;32;20479;-77
2023/06/24 10:17:51;;;;;;;0.20;0.20;;;22.80;99.90;;;;;;4402915;32;20432;-76
2023/06/24 10:20:25;;;;;;;0.22;0.22;;;23.00;99.90;;;;;;4401066;32;20077;-76
2023/06/24 10:22:51;;;;;;;0.37;0.30;;;23.20;99.90;;;;;;4401208;32;20386;-76
2023/06/24 10:25:18;;;;;;;0.20;0.20;;;23.30;99.90;;;;;;4402092;32;20078;-76
2023/06/24 10:27:44;;;;;;;0.22;0.22;;;23.50;99.90;;;;;;4402455;32;20076;-76
2023/06/24 10:30:18;;;;;;;0.32;0.30;;;23.60;99.90;;;;;;4399814;32;20146;-77
2023/06/24 10:32:44;;;;;;;0.20;0.20;;;23.60;99.90;;;;;;4402206;32;20145;-76
2023/06/24 10:35:29;;;;;;;0.35;0.35;;;23.50;99.90;;;;;;4400924;32;20149;-76
2023/06/24 10:37:58;;;;;;;0.20;0.20;;;23.50;99.90;;;;;;4400721;32;20509;-76
2023/06/24 10:40:37;;;;;;;0.20;0.20;;;23.50;99.90;;;;;;4401456;32;21315;-76
2023/06/24 10:43:24;;;;;;;1.65;0.55;;;23.80;99.90;;;;;;4403975;32;20162;-76
2023/06/24 10:45:50;;;;;;;2.10;0.50;;;23.80;99.90;;;;;;4387810;32;20113;-77
2023/06/24 10:48:19;;;;;;;0.10;0.10;;;23.80;99.90;;;;;;4402663;32;20109;-76
2023/06/24 10:50:45;;;;;;;0.15;0.15;;;24.00;99.90;;;;;;4401237;32;20569;-77
2023/06/24 10:53:14;;;;;;;0.22;0.20;;;24.10;99.90;;;;;;4403557;32;20069;-77
2023/06/24 10:55:46;;;;;;;0.30;0.30;;;24.00;99.90;;;;;;4407132;32;20143;-76
2023/06/24 10:58:15;;;;;;;0.30;0.30;;;24.30;99.90;;;;;;4411673;32;20083;-77
2023/06/24 11:00:41;;;;;;;0.30;0.30;;;24.50;99.90;;;;;;4417683;32;20524;-77
2023/06/24 11:03:10;;;;;;;0.30;0.30;;;24.90;99.90;;;;;;4402246;32;20120;-77
2023/06/24 11:05:40;;;;;;;0.10;0.10;;;25.00;99.90;;;;;;4400752;32;20065;-77
2023/06/24 11:08:06;;;;;;;0.30;0.30;;;25.30;99.90;;;;;;4401386;32;20082;-77
2023/06/24 11:10:32;;;;;;;0.32;0.28;;;25.40;99.90;;;;;;4404206;32;20085;-77
2023/06/24 11:13:04;;;;;;;0.20;0.20;;;25.50;99.90;;;;;;4402100;32;20078;-78
2023/06/24 11:15:30;;;;;;;0.20;0.20;;;25.40;99.90;;;;;;4404503;32;20093;-77
2023/06/24 11:17:56;;;;;;;0.98;0.40;;;25.40;99.90;;;;;;4404427;32;20089;-77
2023/06/24 11:20:22;;;;;;;0.88;0.60;;;25.90;99.90;;;;;;4402424;32;20105;-77
2023/06/24 11:22:48;;;;;;;0.17;0.17;;;25.80;97.20;;;;;;4399752;32;20078;-77
2023/06/24 11:25:16;;;;;;;0.13;0.10;;;25.70;97.40;;;;;;4404804;32;20077;-78
2023/06/24 11:27:42;;;;;;;0.10;0.10;;;26.00;98.90;;;;;;4399672;32;20121;-77
2023/06/24 11:30:11;;;;;;;0.03;0.03;;;26.30;98.20;;;;;;4402464;32;20133;-78
2023/06/24 11:32:38;;;;;;;0.20;0.20;;;26.40;99.90;;;;;;4400820;32;20069;-77
2023/06/24 11:35:06;;;;;;;0.10;0.10;;;26.70;99.10;;;;;;4403779;32;20070;-77
2023/06/24 11:37:33;;;;;;;0.75;0.22;;;26.80;97.90;;;;;;4402011;32;20078;-77
2023/06/24 11:40:04;;;;;;;0.22;0.22;;;27.00;96.50;;;;;;4402434;32;20102;-78
2023/06/24 11:42:30;;;;;;;0.10;0.10;;;26.90;94.20;;;;;;4400472;32;20065;-77
2023/06/24 11:45:01;;;;;;;0.28;0.28;;;27.00;94.80;;;;;;4370187;32;1122318;-77
2023/06/24 11:47:27;;;;;;;0.10;0.10;;;27.30;95.70;;;;;;4402967;32;20054;-77
2023/06/24 11:49:55;;;;;;;0.10;0.10;;;27.50;95.50;;;;;;4400140;32;20156;-78
2023/06/24 11:52:48;;;;;;;0.10;0.10;;;27.50;95.10;;;;;;4404357;32;20073;-78
2023/06/24 11:55:23;;;;;;;0.43;0.25;;;27.70;94.40;;;;;;4394038;32;20125;-78
2023/06/24 11:58:05;;;;;;;0.35;0.30;;;27.80;94.60;;;;;;4405587;32;20078;-78
2023/06/24 12:00:32;;;;;;;1.35;0.37;;;27.90;93.90;;;;;;4401442;32;20275;-77
2023/06/24 12:03:00;;;;;;;0.20;0.20;;;28.00;93.90;;;;;;4401461;32;20148;-78
2023/06/24 12:05:29;;;;;;;2.53;1.37;;;28.40;94.30;;;;;;4406298;32;20120;-77
2023/06/24 12:08:00;;;;;;;0.10;0.10;;;28.60;92.30;;;;;;4403225;32;20066;-77
2023/06/24 12:10:27;;;;;;;2.97;0.40;;;28.80;91.20;;;;;;4403694;32;20074;-77
2023/06/24 12:12:52;;;;;;;0.10;0.10;;;28.80;93.10;;;;;;4402802;32;20074;-78
2023/06/24 12:15:18;;;;;;;1.48;0.73;;;28.90;90.80;;;;;;4402069;32;20468;-78
2023/06/24 12:17:44;;;;;;;0.30;0.20;;;29.00;92.00;;;;;;4402851;32;20058;-78
2023/06/24 12:20:17;;;;;;;0.20;0.20;;;29.30;90.00;;;;;;4407584;32;20081;-78
2023/06/24 12:22:43;;;;;;;0.20;0.20;;;29.10;90.60;;;;;;4406368;32;20093;-78
2023/06/24 12:25:12;;;;;;;0.30;0.30;;;29.00;91.30;;;;;;4406156;32;20450;-78
2023/06/24 12:27:38;;;;;;;0.40;0.40;;;29.20;91.00;;;;;;4407072;32;20507;-78
2023/06/24 12:30:04;;;;;;;0.10;0.10;;;29.60;89.80;;;;;;4408011;32;20089;-78
2023/06/24 12:32:32;;;;;;;0.55;0.55;;;29.60;86.30;;;;;;4406654;32;20073;-77
2023/06/24 12:34:58;;;;;;;0.30;0.30;;;29.50;89.00;;;;;;4404482;32;20074;-75
2023/06/24 12:37:24;;;;;;;0.40;0.40;;;29.60;86.70;;;;;;4404722;32;20061;-75
2023/06/24 12:39:51;;;;;;;0.40;0.40;;;30.00;84.60;;;;;;4407611;32;20791;-75
2023/06/24 12:42:16;;;;;;;0.20;0.20;;;30.50;84.00;;;;;;4403726;32;20522;-77
2023/06/24 12:44:42;;;;;;;1.40;0.47;;;30.20;85.70;;;;;;4403265;32;20089;-77